Portada
METAR-TAF:

METAR-TAF

Aeroports :

Puerto Escondido, Mèxic

latitud: 15-52N, longitud: 097-05W, altitud: 88 m

Observació

L'informe es va fer fa 1 hora i 14 minuts, a les 21:45 UTC
Vent 5 kt del Sud-Oest
Temperatura 31°C
Humitat 71%
Pressió 1010 hPa
Visibilitat: 12.9 km
Cel clar

METAR: MMPS 142145Z 23005KT 8SM SKC 31/25 A2983 RMK HZY

Hora: 17:59 (22:59 UTC)

Pronòstic

L'informe es va fer fa 6 hores i 49 minuts, a les 16:10 UTC
Pronòstic vàlid del 14 a les 18 UTC al 15 a les 18 UTC
Vent 10 kt del Oest/Sud-Oest
Visibilitat: 10 km
Cel clar
Evolucionant progressivament
l' 15 a les 02 UTC al 15 a les 03 UTC
Vent 5 kt del Oest/Nord-Oest
A partir de les 15 a les 1700 UTC
Vent 8 kt del Sud/Sud-Oest
Visibilitat: 10 km
Cel clar

TAF: MMPS 141610Z 1418/1518 24010KT P6SM SKC BECMG 1502/1503 30005KT FM151700 20008KT P6SM SKC

Observacions i pronòstics meteorològics de més de 4000 aeroports (METAR i TAF).

Les estacions disponibles són els punts grocs i vermells al mapa.

Posi el ratolí al punt desitjat per veure el nom de l'estació.

Feu clic per veure les observacions i els pronòstics meteorològics.

Per canviar el mapa: feu clic els botons verds amb una creu de color negre per apropar; al botó verd amb un guió per allunyar la imatge; o en les fletxes verdes per a mapes adjacents.


METAR-TAF: